Multibeam Report for TN330


Ship Name: Thomas G. Thompson
Chief Scientist: Dever, Edward
Oregon State University
Source Organization: UNOLS R2R
Start Date: 2015-09-22
End Date: 2015-09-27


View ISO Metadata

Visit the full NCEI Bathymetry Viewer


Multibeam Bathymetry

Cruise Details

Project: Ocean Observatories Initiative (OOI): Endurance Array
Instrument: Kongsberg EM302

Data Quality

Number of Files: 216
Number of Records: 1520114
BATHYMETRY DATA Quantity Percentage
Number of Beams 437789088 100%
Number of Good Beams 431774912 98.63%
Number of Zero Beams 0 0%
Number of Flagged Beams 6014176 1.37%

Navigation Totals

Total Time: 102.2077 hours
Total Track Length: 1427.8926 km
Average Speed: 13.97 km/hr (7.5432 knots)

Cruise Bounds

Northern Extent: 47.12767
Southern Extent: 44.359
Western Extent: -124.95808
Eastern Extent: -124.05087

Limits

Minimum Sonar Depth 3.5694 Maximum Sonar Depth 8.1192
Minimum Altitude 3.1628 Maximum Altitude 2169.614
Minimum Depth 8.0727 Maximum Depth 2445.7048

File Information

Full Resolution Bathymetry as collected (raw): 213

Files File Size Description
0000_20150922_021727_TGT.all.mb58.gz 184.37MB Kongsberg multibeam vendor format
0001_20150922_024727_TGT.all.mb58.gz 180.83MB Kongsberg multibeam vendor format
0002_20150922_031728_TGT.all.mb58.gz 179.97MB Kongsberg multibeam vendor format
0003_20150922_034727_TGT.all.mb58.gz 180.28MB Kongsberg multibeam vendor format
0004_20150922_041728_TGT.all.mb58.gz 181.42MB Kongsberg multibeam vendor format
0005_20150922_044727_TGT.all.mb58.gz 179.47MB Kongsberg multibeam vendor format
0006_20150922_051728_TGT.all.mb58.gz 167.68MB Kongsberg multibeam vendor format
0007_20150922_054727_TGT.all.mb58.gz 140.92MB Kongsberg multibeam vendor format
0008_20150922_061728_TGT.all.mb58.gz 114.85MB Kongsberg multibeam vendor format
0009_20150922_064728_TGT.all.mb58.gz 83.05MB Kongsberg multibeam vendor format
0010_20150922_071728_TGT.all.mb58.gz 66.92MB Kongsberg multibeam vendor format
0011_20150922_074728_TGT.all.mb58.gz 61.04MB Kongsberg multibeam vendor format
0012_20150922_081728_TGT.all.mb58.gz 58.28MB Kongsberg multibeam vendor format
0013_20150922_084729_TGT.all.mb58.gz 62.09MB Kongsberg multibeam vendor format
0014_20150922_091728_TGT.all.mb58.gz 70.75MB Kongsberg multibeam vendor format
0015_20150922_094728_TGT.all.mb58.gz 78.05MB Kongsberg multibeam vendor format
0016_20150922_101728_TGT.all.mb58.gz 86.45MB Kongsberg multibeam vendor format
0017_20150922_104728_TGT.all.mb58.gz 94.02MB Kongsberg multibeam vendor format
0018_20150922_111728_TGT.all.mb58.gz 90.82MB Kongsberg multibeam vendor format
0019_20150922_114728_TGT.all.mb58.gz 88.47MB Kongsberg multibeam vendor format
0020_20150922_121728_TGT.all.mb58.gz 117.93MB Kongsberg multibeam vendor format
0021_20150922_124728_TGT.all.mb58.gz 154.88MB Kongsberg multibeam vendor format
0022_20150922_131728_TGT.all.mb58.gz 178.28MB Kongsberg multibeam vendor format
0023_20150922_134728_TGT.all.mb58.gz 182.20MB Kongsberg multibeam vendor format
0024_20150922_141728_TGT.all.mb58.gz 181.70MB Kongsberg multibeam vendor format
0025_20150922_144728_TGT.all.mb58.gz 182.48MB Kongsberg multibeam vendor format
0026_20150922_151728_TGT.all.mb58.gz 180.98MB Kongsberg multibeam vendor format
0027_20150922_154728_TGT.all.mb58.gz 178.00MB Kongsberg multibeam vendor format
0028_20150922_161728_TGT.all.mb58.gz 181.66MB Kongsberg multibeam vendor format
0029_20150922_164728_TGT.all.mb58.gz 131.82MB Kongsberg multibeam vendor format
0030_20150922_201054_TGT.all.mb58.gz 198.25MB Kongsberg multibeam vendor format
0031_20150922_204054_TGT.all.mb58.gz 273.69MB Kongsberg multibeam vendor format
0032_20150922_211054_TGT.all.mb58.gz 358.73MB Kongsberg multibeam vendor format
0033_20150922_214054_TGT.all.mb58.gz 365.97MB Kongsberg multibeam vendor format
0034_20150922_221054_TGT.all.mb58.gz 90.03MB Kongsberg multibeam vendor format
0035_20150923_025040_TGT.all.mb58.gz 210.60MB Kongsberg multibeam vendor format
0036_20150923_032040_TGT.all.mb58.gz 183.90MB Kongsberg multibeam vendor format
0037_20150923_035040_TGT.all.mb58.gz 141.59MB Kongsberg multibeam vendor format
0038_20150923_042040_TGT.all.mb58.gz 122.29MB Kongsberg multibeam vendor format
0039_20150923_045040_TGT.all.mb58.gz 109.22MB Kongsberg multibeam vendor format
0040_20150923_052040_TGT.all.mb58.gz 103.57MB Kongsberg multibeam vendor format
0041_20150923_055041_TGT.all.mb58.gz 103.01MB Kongsberg multibeam vendor format
0042_20150923_062040_TGT.all.mb58.gz 103.04MB Kongsberg multibeam vendor format
0043_20150923_065040_TGT.all.mb58.gz 112.04MB Kongsberg multibeam vendor format
0044_20150923_072040_TGT.all.mb58.gz 121.53MB Kongsberg multibeam vendor format
0045_20150923_075041_TGT.all.mb58.gz 120.69MB Kongsberg multibeam vendor format
0046_20150923_082041_TGT.all.mb58.gz 118.91MB Kongsberg multibeam vendor format
0047_20150923_085041_TGT.all.mb58.gz 120.27MB Kongsberg multibeam vendor format
0048_20150923_092041_TGT.all.mb58.gz 127.02MB Kongsberg multibeam vendor format
0049_20150923_095041_TGT.all.mb58.gz 135.94MB Kongsberg multibeam vendor format
0050_20150923_102041_TGT.all.mb58.gz 121.51MB Kongsberg multibeam vendor format
0051_20150923_105041_TGT.all.mb58.gz 109.46MB Kongsberg multibeam vendor format
0052_20150923_112041_TGT.all.mb58.gz 139.04MB Kongsberg multibeam vendor format
0053_20150923_115041_TGT.all.mb58.gz 125.39MB Kongsberg multibeam vendor format
0054_20150923_122041_TGT.all.mb58.gz 141.36MB Kongsberg multibeam vendor format
0055_20150923_125041_TGT.all.mb58.gz 156.01MB Kongsberg multibeam vendor format
0056_20150923_132041_TGT.all.mb58.gz 160.88MB Kongsberg multibeam vendor format
0057_20150923_135041_TGT.all.mb58.gz 166.75MB Kongsberg multibeam vendor format
0058_20150923_142041_TGT.all.mb58.gz 167.27MB Kongsberg multibeam vendor format
0059_20150923_145041_TGT.all.mb58.gz 169.78MB Kongsberg multibeam vendor format
0060_20150923_152041_TGT.all.mb58.gz 168.32MB Kongsberg multibeam vendor format
0061_20150923_155041_TGT.all.mb58.gz 169.25MB Kongsberg multibeam vendor format
0062_20150923_162041_TGT.all.mb58.gz 94.79MB Kongsberg multibeam vendor format
0063_20150923_183631_TGT.all.mb58.gz 174.44MB Kongsberg multibeam vendor format
0064_20150923_190631_TGT.all.mb58.gz 155.99MB Kongsberg multibeam vendor format
0065_20150923_193632_TGT.all.mb58.gz 131.03MB Kongsberg multibeam vendor format
0066_20150923_200632_TGT.all.mb58.gz 116.57MB Kongsberg multibeam vendor format
0067_20150923_203632_TGT.all.mb58.gz 83.19MB Kongsberg multibeam vendor format
0068_20150923_210632_TGT.all.mb58.gz 76.28MB Kongsberg multibeam vendor format
0069_20150923_213632_TGT.all.mb58.gz 29.98MB Kongsberg multibeam vendor format
0070_20150924_012132_TGT.all.mb58.gz 323.7KB Kongsberg multibeam vendor format
0071_20150924_012540_TGT.all.mb58.gz 29.93MB Kongsberg multibeam vendor format
0072_20150924_015540_TGT.all.mb58.gz 32.06MB Kongsberg multibeam vendor format
0073_20150924_022539_TGT.all.mb58.gz 43.04MB Kongsberg multibeam vendor format
0074_20150924_025539_TGT.all.mb58.gz 114.29MB Kongsberg multibeam vendor format
0075_20150924_032540_TGT.all.mb58.gz 121.79MB Kongsberg multibeam vendor format
0076_20150924_035540_TGT.all.mb58.gz 137.08MB Kongsberg multibeam vendor format
0077_20150924_042540_TGT.all.mb58.gz 128.28MB Kongsberg multibeam vendor format
0078_20150924_045540_TGT.all.mb58.gz 127.50MB Kongsberg multibeam vendor format
0079_20150924_052540_TGT.all.mb58.gz 117.82MB Kongsberg multibeam vendor format
0080_20150924_055540_TGT.all.mb58.gz 110.91MB Kongsberg multibeam vendor format
0081_20150924_062540_TGT.all.mb58.gz 104.28MB Kongsberg multibeam vendor format
0082_20150924_065540_TGT.all.mb58.gz 96.34MB Kongsberg multibeam vendor format
0083_20150924_072540_TGT.all.mb58.gz 90.49MB Kongsberg multibeam vendor format
0084_20150924_075540_TGT.all.mb58.gz 85.96MB Kongsberg multibeam vendor format
0085_20150924_082540_TGT.all.mb58.gz 78.53MB Kongsberg multibeam vendor format
0086_20150924_085540_TGT.all.mb58.gz 75.85MB Kongsberg multibeam vendor format
0087_20150924_092540_TGT.all.mb58.gz 77.86MB Kongsberg multibeam vendor format
0088_20150924_095540_TGT.all.mb58.gz 96.08MB Kongsberg multibeam vendor format
0089_20150924_102540_TGT.all.mb58.gz 116.31MB Kongsberg multibeam vendor format
0090_20150924_105540_TGT.all.mb58.gz 128.51MB Kongsberg multibeam vendor format
0091_20150924_112540_TGT.all.mb58.gz 140.08MB Kongsberg multibeam vendor format
0092_20150924_115540_TGT.all.mb58.gz 155.65MB Kongsberg multibeam vendor format
0093_20150924_122540_TGT.all.mb58.gz 177.10MB Kongsberg multibeam vendor format
0094_20150924_125540_TGT.all.mb58.gz 201.74MB Kongsberg multibeam vendor format
0095_20150924_132540_TGT.all.mb58.gz 207.91MB Kongsberg multibeam vendor format
0096_20150924_135540_TGT.all.mb58.gz 201.81MB Kongsberg multibeam vendor format
0097_20150924_142540_TGT.all.mb58.gz 203.10MB Kongsberg multibeam vendor format
0098_20150924_145540_TGT.all.mb58.gz 200.22MB Kongsberg multibeam vendor format
0099_20150924_152540_TGT.all.mb58.gz 201.01MB Kongsberg multibeam vendor format
0100_20150924_155540_TGT.all.mb58.gz 216.95MB Kongsberg multibeam vendor format
0101_20150924_162540_TGT.all.mb58.gz 331.20MB Kongsberg multibeam vendor format
0102_20150924_165540_TGT.all.mb58.gz 52.98MB Kongsberg multibeam vendor format
0103_20150924_233555_TGT.all.mb58.gz 208.56MB Kongsberg multibeam vendor format
0104_20150925_000552_TGT.all.mb58.gz 252.98MB Kongsberg multibeam vendor format
0105_20150925_003552_TGT.all.mb58.gz 191.18MB Kongsberg multibeam vendor format
0106_20150925_010552_TGT.all.mb58.gz 157.42MB Kongsberg multibeam vendor format
0107_20150925_013553_TGT.all.mb58.gz 85.29MB Kongsberg multibeam vendor format
0108_20150925_020552_TGT.all.mb58.gz 78.64MB Kongsberg multibeam vendor format
0109_20150925_023552_TGT.all.mb58.gz 76.87MB Kongsberg multibeam vendor format
0110_20150925_030553_TGT.all.mb58.gz 77.07MB Kongsberg multibeam vendor format
0111_20150925_033553_TGT.all.mb58.gz 78.21MB Kongsberg multibeam vendor format
0112_20150925_040553_TGT.all.mb58.gz 81.29MB Kongsberg multibeam vendor format
0113_20150925_043553_TGT.all.mb58.gz 85.34MB Kongsberg multibeam vendor format
0114_20150925_050553_TGT.all.mb58.gz 84.64MB Kongsberg multibeam vendor format
0115_20150925_053553_TGT.all.mb58.gz 85.22MB Kongsberg multibeam vendor format
0116_20150925_060553_TGT.all.mb58.gz 87.22MB Kongsberg multibeam vendor format
0117_20150925_063553_TGT.all.mb58.gz 92.46MB Kongsberg multibeam vendor format
0118_20150925_070553_TGT.all.mb58.gz 86.08MB Kongsberg multibeam vendor format
0119_20150925_073553_TGT.all.mb58.gz 71.48MB Kongsberg multibeam vendor format
0120_20150925_080553_TGT.all.mb58.gz 95.30MB Kongsberg multibeam vendor format
0121_20150925_083553_TGT.all.mb58.gz 87.26MB Kongsberg multibeam vendor format
0122_20150925_090553_TGT.all.mb58.gz 93.69MB Kongsberg multibeam vendor format
0123_20150925_093553_TGT.all.mb58.gz 108.27MB Kongsberg multibeam vendor format
0124_20150925_100553_TGT.all.mb58.gz 111.83MB Kongsberg multibeam vendor format
0125_20150925_103553_TGT.all.mb58.gz 118.19MB Kongsberg multibeam vendor format
0126_20150925_110553_TGT.all.mb58.gz 24.57MB Kongsberg multibeam vendor format
0127_20150925_113555_TGT.all.mb58.gz 12.49MB Kongsberg multibeam vendor format
0128_20150925_120558_TGT.all.mb58.gz 12.29MB Kongsberg multibeam vendor format
0129_20150925_123555_TGT.all.mb58.gz 3.47MB Kongsberg multibeam vendor format
0130_20150925_130553_TGT.all.mb58.gz 5.21MB Kongsberg multibeam vendor format
0131_20150925_133600_TGT.all.mb58.gz 4.51MB Kongsberg multibeam vendor format
0132_20150925_140553_TGT.all.mb58.gz 79.29MB Kongsberg multibeam vendor format
0133_20150925_160534_TGT.all.mb58.gz 113.54MB Kongsberg multibeam vendor format
0134_20150925_163534_TGT.all.mb58.gz 96.50MB Kongsberg multibeam vendor format
0135_20150925_170535_TGT.all.mb58.gz 84.20MB Kongsberg multibeam vendor format
0136_20150925_173535_TGT.all.mb58.gz 66.61MB Kongsberg multibeam vendor format
0137_20150925_180537_TGT.all.mb58.gz 43.09MB Kongsberg multibeam vendor format
0138_20150925_183536_TGT.all.mb58.gz 22.45MB Kongsberg multibeam vendor format
0139_20150926_014454_TGT.all.mb58.gz 57.79MB Kongsberg multibeam vendor format
0140_20150926_021451_TGT.all.mb58.gz 86.32MB Kongsberg multibeam vendor format
0141_20150926_024451_TGT.all.mb58.gz 101.67MB Kongsberg multibeam vendor format
0142_20150926_031451_TGT.all.mb58.gz 118.08MB Kongsberg multibeam vendor format
0143_20150926_034451_TGT.all.mb58.gz 118.66MB Kongsberg multibeam vendor format
0144_20150926_041451_TGT.all.mb58.gz 118.59MB Kongsberg multibeam vendor format
0145_20150926_044451_TGT.all.mb58.gz 120.55MB Kongsberg multibeam vendor format
0146_20150926_051452_TGT.all.mb58.gz 118.99MB Kongsberg multibeam vendor format
0147_20150926_054452_TGT.all.mb58.gz 117.73MB Kongsberg multibeam vendor format
0148_20150926_061451_TGT.all.mb58.gz 117.30MB Kongsberg multibeam vendor format
0149_20150926_064452_TGT.all.mb58.gz 118.06MB Kongsberg multibeam vendor format
0150_20150926_071452_TGT.all.mb58.gz 120.79MB Kongsberg multibeam vendor format
0151_20150926_074451_TGT.all.mb58.gz 122.66MB Kongsberg multibeam vendor format
0152_20150926_081452_TGT.all.mb58.gz 118.57MB Kongsberg multibeam vendor format
0153_20150926_084451_TGT.all.mb58.gz 119.12MB Kongsberg multibeam vendor format
0154_20150926_091452_TGT.all.mb58.gz 118.82MB Kongsberg multibeam vendor format
0155_20150926_094452_TGT.all.mb58.gz 122.43MB Kongsberg multibeam vendor format
0156_20150926_101452_TGT.all.mb58.gz 119.44MB Kongsberg multibeam vendor format
0157_20150926_104452_TGT.all.mb58.gz 118.62MB Kongsberg multibeam vendor format
0158_20150926_111452_TGT.all.mb58.gz 118.70MB Kongsberg multibeam vendor format
0159_20150926_114452_TGT.all.mb58.gz 119.38MB Kongsberg multibeam vendor format
0160_20150926_121452_TGT.all.mb58.gz 122.98MB Kongsberg multibeam vendor format
0161_20150926_124452_TGT.all.mb58.gz 120.45MB Kongsberg multibeam vendor format
0162_20150926_131452_TGT.all.mb58.gz 121.47MB Kongsberg multibeam vendor format
0163_20150926_134452_TGT.all.mb58.gz 121.45MB Kongsberg multibeam vendor format
0164_20150926_141452_TGT.all.mb58.gz 102.85MB Kongsberg multibeam vendor format
0165_20150926_185254_TGT.all.mb58.gz 113.67MB Kongsberg multibeam vendor format
0166_20150926_192255_TGT.all.mb58.gz 161.41MB Kongsberg multibeam vendor format
0167_20150926_195255_TGT.all.mb58.gz 152.87MB Kongsberg multibeam vendor format
0168_20150926_202255_TGT.all.mb58.gz 141.96MB Kongsberg multibeam vendor format
0169_20150926_205255_TGT.all.mb58.gz 122.92MB Kongsberg multibeam vendor format
0170_20150926_212255_TGT.all.mb58.gz 112.41MB Kongsberg multibeam vendor format
0171_20150926_215255_TGT.all.mb58.gz 104.35MB Kongsberg multibeam vendor format
0172_20150926_222255_TGT.all.mb58.gz 94.62MB Kongsberg multibeam vendor format
0173_20150926_225255_TGT.all.mb58.gz 83.50MB Kongsberg multibeam vendor format
0174_20150926_232255_TGT.all.mb58.gz 40.80MB Kongsberg multibeam vendor format
0175_20150926_235256_TGT.all.mb58.gz 35.93MB Kongsberg multibeam vendor format
0176_20150927_002255_TGT.all.mb58.gz 45.36MB Kongsberg multibeam vendor format
0177_20150927_005256_TGT.all.mb58.gz 65.74MB Kongsberg multibeam vendor format
0178_20150927_012242_TGT.all.mb58.gz 48.40MB Kongsberg multibeam vendor format
0179_20150927_015241_TGT.all.mb58.gz 68.75MB Kongsberg multibeam vendor format
0180_20150927_022241_TGT.all.mb58.gz 70.71MB Kongsberg multibeam vendor format
0181_20150927_025241_TGT.all.mb58.gz 68.77MB Kongsberg multibeam vendor format
0182_20150927_032242_TGT.all.mb58.gz 67.05MB Kongsberg multibeam vendor format
0183_20150927_035241_TGT.all.mb58.gz 56.15MB Kongsberg multibeam vendor format
0184_20150927_042242_TGT.all.mb58.gz 55.67MB Kongsberg multibeam vendor format
0185_20150927_045241_TGT.all.mb58.gz 49.93MB Kongsberg multibeam vendor format
0186_20150927_052242_TGT.all.mb58.gz 48.57MB Kongsberg multibeam vendor format
0187_20150927_055242_TGT.all.mb58.gz 42.15MB Kongsberg multibeam vendor format
0188_20150927_062243_TGT.all.mb58.gz 41.89MB Kongsberg multibeam vendor format
0189_20150927_065242_TGT.all.mb58.gz 41.65MB Kongsberg multibeam vendor format
0190_20150927_072241_TGT.all.mb58.gz 40.24MB Kongsberg multibeam vendor format
0191_20150927_075242_TGT.all.mb58.gz 40.11MB Kongsberg multibeam vendor format
0192_20150927_082243_TGT.all.mb58.gz 40.76MB Kongsberg multibeam vendor format
0193_20150927_085243_TGT.all.mb58.gz 41.46MB Kongsberg multibeam vendor format
0194_20150927_092244_TGT.all.mb58.gz 41.20MB Kongsberg multibeam vendor format
0195_20150927_095243_TGT.all.mb58.gz 49.04MB Kongsberg multibeam vendor format
0196_20150927_102242_TGT.all.mb58.gz 53.21MB Kongsberg multibeam vendor format
0197_20150927_105243_TGT.all.mb58.gz 46.57MB Kongsberg multibeam vendor format
0198_20150927_112243_TGT.all.mb58.gz 43.55MB Kongsberg multibeam vendor format
0199_20150927_115242_TGT.all.mb58.gz 42.30MB Kongsberg multibeam vendor format
0200_20150927_122243_TGT.all.mb58.gz 43.49MB Kongsberg multibeam vendor format
0201_20150927_125243_TGT.all.mb58.gz 45.28MB Kongsberg multibeam vendor format
0202_20150927_132242_TGT.all.mb58.gz 44.38MB Kongsberg multibeam vendor format
0203_20150927_135244_TGT.all.mb58.gz 21.77MB Kongsberg multibeam vendor format
0204_20150927_152959_TGT.all.mb58.gz 49.77MB Kongsberg multibeam vendor format
0205_20150927_155959_TGT.all.mb58.gz 78.92MB Kongsberg multibeam vendor format
0206_20150927_162959_TGT.all.mb58.gz 91.29MB Kongsberg multibeam vendor format
0207_20150927_165959_TGT.all.mb58.gz 109.98MB Kongsberg multibeam vendor format
0208_20150927_172958_TGT.all.mb58.gz 139.40MB Kongsberg multibeam vendor format
0209_20150927_175958_TGT.all.mb58.gz 133.10MB Kongsberg multibeam vendor format
0210_20150927_182959_TGT.all.mb58.gz 147.80MB Kongsberg multibeam vendor format
0211_20150927_185959_TGT.all.mb58.gz 203.37MB Kongsberg multibeam vendor format
0212_20150927_192959_TGT.all.mb58.gz 22.73MB Kongsberg multibeam vendor format

Metadata Files: 2

Files File Size Description
TN330_Multibeam.xml NGDC created ISO metadata
em302_bag_info.tar.gz 10.0KB Additional cruise information

Water Column Sonar Data

Water Column Sonar Data Available: WCSD Map Viewer